Kahuta Weather



Kahuta's Current Weather

Temprature 25.59o haze

haze

Rain: 0 %

Min Temprature24o
Max Temprature27.22o
Humidity78
Wind Speed4.1 m/h
Sun Rise05:33:57
Sun Set18:44:54
Current Time: 23-Aug-2019 05:40:22
Lat/Lon: 33.59, 73.39




Kahuta's Geo Location



Kahuta's Weather Forecast

Time Overall Temp Min Temp Max Temp Humidity Wind Speed Rain
23-Aug-2019 (Fri)
08:00:00 clear sky 28.590 28.590 29.677 53 2.75 m/h 0 %
11:00:00 clear sky 33.230 33.230 34.050 40 0.81 m/h 0 %
14:00:00 clear sky 35.890 35.890 36.431 32 3.17 m/h 0 %
17:00:00 clear sky 35.940 35.940 36.211 33 3.07 m/h 0 %
20:00:00 clear sky 31.650 31.650 31.650 43 2.08 m/h 0 %
23:00:00 clear sky 29.942 29.942 29.942 48 2.32 m/h 0 %
24-Aug-2019 (Sat)
02:00:00 clear sky 28.231 28.231 28.231 54 3.51 m/h 0 %
05:00:00 clear sky 27.155 27.155 27.155 58 3.55 m/h 0 %
08:00:00 clear sky 30.517 30.517 30.517 50 2.85 m/h 0 %
11:00:00 clear sky 35.069 35.069 35.069 37 1.59 m/h 0 %
14:00:00 clear sky 37.369 37.369 37.369 30 2.11 m/h 0 %
17:00:00 clear sky 37.223 37.223 37.223 29 1.99 m/h 0 %
20:00:00 clear sky 32.550 32.550 32.550 40 2.89 m/h 0 %
23:00:00 clear sky 30.469 30.469 30.469 45 2.37 m/h 0 %
25-Aug-2019 (Sun)
02:00:00 clear sky 28.931 28.931 28.931 52 3.44 m/h 0 %
05:00:00 clear sky 27.757 27.757 27.757 57 3.67 m/h 0 %
08:00:00 clear sky 31.214 31.214 31.214 49 3.83 m/h 0 %
11:00:00 clear sky 35.116 35.116 35.116 40 4.42 m/h 0 %
14:00:00 clear sky 37.050 37.050 37.050 32 2.41 m/h 0 %
17:00:00 clear sky 37.450 37.450 37.450 29 0.55 m/h 0 %
20:00:00 clear sky 32.881 32.881 32.881 39 2.44 m/h 0 %
23:00:00 clear sky 30.411 30.411 30.411 51 3.63 m/h 0 %
26-Aug-2019 (Mon)
02:00:00 light rain 28.365 28.365 28.365 66 4.78 m/h 31 %
05:00:00 light rain 26.350 26.350 26.350 73 4.5 m/h 138 %
08:00:00 light rain 28.767 28.767 28.767 66 4.14 m/h 119 %
11:00:00 light rain 33.472 33.472 33.472 50 4.42 m/h 12 %
14:00:00 clear sky 35.884 35.884 35.884 38 2.86 m/h 0 %
17:00:00 clear sky 36.120 36.120 36.120 36 1.91 m/h 0 %
20:00:00 scattered clouds 32.272 32.272 32.272 46 2.12 m/h 0 %
23:00:00 few clouds 30.414 30.414 30.414 53 3.08 m/h 0 %
27-Aug-2019 (Tue)
02:00:00 clear sky 28.816 28.816 28.816 59 1.55 m/h 0 %
05:00:00 few clouds 27.950 27.950 27.950 63 1.3 m/h 0 %
08:00:00 broken clouds 30.335 30.335 30.335 53 2.64 m/h 0 %
11:00:00 overcast clouds 34.536 34.536 34.536 43 0.73 m/h 0 %
14:00:00 broken clouds 36.636 36.636 36.636 36 1.41 m/h 0 %
17:00:00 overcast clouds 36.465 36.465 36.465 35 1.73 m/h 0 %
20:00:00 overcast clouds 32.450 32.450 32.450 47 0.95 m/h 0 %
23:00:00 overcast clouds 30.950 30.950 30.950 51 3.06 m/h 0 %
28-Aug-2019 (Wed)
02:00:00 broken clouds 29.657 29.657 29.657 56 3.12 m/h 0 %
05:00:00 scattered clouds 28.772 28.772 28.772 59 3.01 m/h 0 %

Famous Cities (61)